RCKH

Kaohsiung International Airport

Kaohsiung City, Taiwan
TAF RCKH 252300Z 2600/2706 22005KT 6000 FEW010 BKN020 BKN040 BECMG 2600/2602 25008KT FEW015 BKN032 TEMPO 2606/2611 31005KT BECMG 2611/2613 01005KT TEMPO 2618/2624 4000 HZ BECMG 2700/2702 25008KT
Issued Valid From Valid To
Apr-25 @ 23:00 UTC
(5 hours ago)
Apr-26 @ 00:00 UTC
(4 hours ago)
Apr-27 @ 06:00 UTC
(-1 days ago)
Apr-26 @ 00:00 to Apr-27 @ 06:00
TAF RCKH 252300Z 2600/2706 22005KT 6000 FEW010 BKN020 BKN040
Wind Visibility Clouds
220° at 5 knots 6,003 meters
  • Few at 1,000' AGL
  • Broken at 2,000' AGL
  • Broken at 4,000' AGL
Becoming Apr-26 @ 00:00 to Apr-26 @ 11:00
BECMG 2600/2602 25008KT FEW015 BKN032
Wind Visibility Clouds
250° at 8 knots 6,003 meters
  • Few at 1,500' AGL
  • Broken at 3,200' AGL
Temporary Apr-26 @ 06:00 to Apr-26 @ 11:00
TEMPO 2606/2611 31005KT
Wind
310° at 5 knots
Becoming Apr-26 @ 11:00 to Apr-27 @ 00:00
BECMG 2611/2613 01005KT
Wind Visibility Clouds
10° at 5 knots 6,003 meters
  • Few at 1,500' AGL
  • Broken at 3,200' AGL
Temporary Apr-26 @ 18:00 to Apr-27 @ 00:00
TEMPO 2618/2624 4000 HZ
Visibility Conditions
4,007 meters
  • Haze
Becoming Apr-27 @ 00:00 to Apr-27 @ 06:00
BECMG 2700/2702 25008KT
Wind Visibility Clouds
250° at 8 knots 6,003 meters
  • Few at 1,500' AGL
  • Broken at 3,200' AGL
TAF RCKH 252300Z 2600/2706 22005KT 6000 FEW010 BKN020 BKN040 BECMG 2600/2602 25008KT FEW015 BKN032 TEMPO 2606/2611 31005KT BECMG 2611/2613 01005KT TEMPO 2618/2624 4000 HZ BECMG 2700/2702 25008KT
Issued Apr-25 @ 23:00 UTC
(5 hours ago)
Valid From Apr-26 @ 00:00 UTC
(4 hours ago)
Valid To Apr-27 @ 06:00 UTC
(-1 days ago)
Apr-26 @ 00:00 - Apr-27 @ 06:00
Wind Visibility
220° at 5 knots 6,003 meters
Clouds
  • Few at 1,000' AGL
  • Broken at 2,000' AGL
  • Broken at 4,000' AGL
Becoming Apr-26 @ 00:00 - Apr-26 @ 11:00
Wind Visibility
250° at 8 knots 6,003 meters
Clouds
  • Few at 1,500' AGL
  • Broken at 3,200' AGL
Temporary Apr-26 @ 06:00 - Apr-26 @ 11:00
Wind
310° at 5 knots
Becoming Apr-26 @ 11:00 - Apr-27 @ 00:00
Wind Visibility
10° at 5 knots 6,003 meters
Clouds
  • Few at 1,500' AGL
  • Broken at 3,200' AGL
Temporary Apr-26 @ 18:00 - Apr-27 @ 00:00
Conditions
  • Haze
Becoming Apr-27 @ 00:00 - Apr-27 @ 06:00
Wind Visibility
250° at 8 knots 6,003 meters
Clouds
  • Few at 1,500' AGL
  • Broken at 3,200' AGL